Indian Agency, Colorado
Current Conditions -  °F | °C
As of 9:53 PM on Friday 28 Nov 2014 (Local Time) from KDRO Reporting Station
Clear Clear  
Wind Chill: 29°   Ceiling: Unl
Heat Index: 29°   Visibility: 10mi
Dew Point: 16°   Wind: 3mph
Humidity: 58%   Direction: 10°N
Pressure: 30.1"   Gusts: NA
Location:  37.0891°N, 107.649°W
Report Text: KDRO 290453Z AUTO 01003KT 10SM CLR M02/M09 A3010 RMK AO2 SLP201 T10171089
Loading
Personal Weather Stations






























Interactive Weather Map New forecast layout! Learn more

10-Day Weather Forecast

Advertisements
Track Severe Weather on mobile